Time;durP1;ratioP1;P1;durP2;ratioP2;P2;SDS_P1;SDS_P2;PMS_P1;PMS_P2;Temp;Humidity;BMP_temperature;BMP_pressure;BME280_temperature;BME280_humidity;BME280_pressure;Samples;Min_cycle;Max_cycle;Signal;HPM_P1;HPM_P2
2022/07/06 00:01:44;;;;;;;13.55;3.95;;;;;;;;;;5006049;28;20109;-75
2022/07/06 00:04:10;;;;;;;20.48;4.28;;;;;;;;;;4998024;28;20030;-75
2022/07/06 00:06:36;;;;;;;11.85;3.95;;;;;;;;;;4990353;28;20113;-76
2022/07/06 00:09:03;;;;;;;9.10;3.90;;;;;;;;;;4997716;28;20095;-75
2022/07/06 00:11:29;;;;;;;15.02;4.45;;;;;;;;;;4995475;28;20030;-75
2022/07/06 00:13:59;;;;;;;12.65;3.72;;;;;;;;;;4988869;28;20026;-75
2022/07/06 00:16:25;;;;;;;25.88;4.40;;;;;;;;;;4995512;28;20571;-76
2022/07/06 00:18:51;;;;;;;15.85;4.45;;;;;;;;;;5008894;28;20032;-75
2022/07/06 00:21:18;;;;;;;16.00;4.20;;;;;;;;;;5005325;28;20038;-76
2022/07/06 00:23:44;;;;;;;16.70;4.32;;;;;;;;;;5001385;28;20117;-75
2022/07/06 00:26:11;;;;;;;10.95;3.65;;;;;;;;;;5003819;28;20041;-75
2022/07/06 00:28:37;;;;;;;17.27;4.20;;;;;;;;;;5010473;28;20026;-75
2022/07/06 00:31:03;;;;;;;10.68;4.47;;;;;;;;;;4995197;28;20034;-75
2022/07/06 00:33:30;;;;;;;12.20;3.90;;;;;;;;;;5002482;28;20022;-75
2022/07/06 00:35:56;;;;;;;14.32;4.30;;;;;;;;;;4995637;28;20521;-75
2022/07/06 00:38:22;;;;;;;15.77;3.92;;;;;;;;;;4996137;28;20053;-75
2022/07/06 00:40:49;;;;;;;13.65;4.13;;;;;;;;;;4999583;28;20471;-75
2022/07/06 00:43:15;;;;;;;10.88;4.00;;;;;;;;;;4997175;28;20113;-76
2022/07/06 00:45:41;;;;;;;8.35;2.83;;;;;;;;;;4999615;28;20034;-75
2022/07/06 00:48:07;;;;;;;5.15;2.80;;;;;;;;;;5003456;28;20072;-75
2022/07/06 00:50:34;;;;;;;5.70;3.10;;;;;;;;;;5002564;28;20030;-75
2022/07/06 00:53:04;;;;;;;5.20;2.90;;;;;;;;;;4998528;28;20030;-75
2022/07/06 00:55:32;;;;;;;5.85;3.08;;;;;;;;;;4999265;28;20057;-74
2022/07/06 00:57:58;;;;;;;7.15;3.10;;;;;;;;;;4998236;28;20113;-75
2022/07/06 01:00:26;;;;;;;11.93;3.60;;;;;;;;;;5003516;28;20063;-75
2022/07/06 01:02:52;;;;;;;8.27;3.00;;;;;;;;;;4998345;28;20037;-75
2022/07/06 01:05:19;;;;;;;6.40;3.38;;;;;;;;;;5003776;28;20029;-75
2022/07/06 01:07:46;;;;;;;6.35;3.00;;;;;;;;;;4998251;28;20037;-75
2022/07/06 01:10:13;;;;;;;10.77;3.63;;;;;;;;;;5001303;28;20100;-75
2022/07/06 01:12:40;;;;;;;4.70;3.10;;;;;;;;;;4996674;28;20096;-75
2022/07/06 01:15:08;;;;;;;4.60;3.25;;;;;;;;;;4993530;28;20026;-75
2022/07/06 01:17:34;;;;;;;6.15;2.90;;;;;;;;;;4997954;28;20077;-75
2022/07/06 01:20:15;;;;;;;5.18;3.60;;;;;;;;;;4997104;28;20475;-78
2022/07/06 01:22:42;;;;;;;8.18;3.78;;;;;;;;;;4998509;28;20072;-76
2022/07/06 01:25:09;;;;;;;5.80;3.08;;;;;;;;;;4993919;28;20033;-75
2022/07/06 01:27:37;;;;;;;7.18;3.42;;;;;;;;;;4997283;28;20434;-76
2022/07/06 01:30:05;;;;;;;5.53;3.30;;;;;;;;;;5002167;28;20427;-76
2022/07/06 01:32:31;;;;;;;5.78;3.20;;;;;;;;;;4998568;28;20123;-75
2022/07/06 01:34:57;;;;;;;8.52;3.42;;;;;;;;;;5000534;28;20457;-75
2022/07/06 01:37:23;;;;;;;4.95;3.40;;;;;;;;;;4996781;28;20037;-76
2022/07/06 01:39:49;;;;;;;5.75;3.00;;;;;;;;;;4989316;28;20041;-77
2022/07/06 01:42:17;;;;;;;7.38;3.13;;;;;;;;;;5003122;28;20109;-76
2022/07/06 01:44:44;;;;;;;8.48;3.80;;;;;;;;;;4991606;28;20026;-77
2022/07/06 01:47:10;;;;;;;11.48;3.40;;;;;;;;;;4992877;28;20484;-77
2022/07/06 01:49:36;;;;;;;11.02;3.58;;;;;;;;;;4995058;28;20042;-77
2022/07/06 01:52:03;;;;;;;15.60;4.22;;;;;;;;;;4998753;28;20041;-76
2022/07/06 01:54:29;;;;;;;6.43;3.60;;;;;;;;;;4997377;28;20249;-76
2022/07/06 01:56:55;;;;;;;7.78;3.65;;;;;;;;;;4995123;28;20069;-77
2022/07/06 01:59:21;;;;;;;15.18;3.72;;;;;;;;;;4989517;28;20042;-77
2022/07/06 02:01:47;;;;;;;11.02;3.60;;;;;;;;;;4989142;28;20511;-77
2022/07/06 02:04:13;;;;;;;8.98;3.42;;;;;;;;;;4992449;28;20029;-77
2022/07/06 02:06:40;;;;;;;12.20;4.32;;;;;;;;;;4994485;28;20041;-77
2022/07/06 02:09:06;;;;;;;8.20;3.60;;;;;;;;;;4990851;28;20034;-76
2022/07/06 02:11:32;;;;;;;5.55;3.25;;;;;;;;;;4989047;28;20076;-76
2022/07/06 02:13:58;;;;;;;8.73;3.90;;;;;;;;;;4993687;28;20724;-77
2022/07/06 02:16:24;;;;;;;8.43;3.63;;;;;;;;;;4989498;28;20053;-76
2022/07/06 02:18:50;;;;;;;12.02;3.67;;;;;;;;;;4986358;28;20057;-76
2022/07/06 02:21:17;;;;;;;8.90;3.70;;;;;;;;;;4996296;28;20665;-76
2022/07/06 02:23:43;;;;;;;10.98;3.92;;;;;;;;;;4995249;28;20041;-76
2022/07/06 02:26:09;;;;;;;12.77;3.88;;;;;;;;;;4996950;28;20032;-77
2022/07/06 02:28:35;;;;;;;13.70;3.70;;;;;;;;;;4992875;28;20664;-76
2022/07/06 02:31:01;;;;;;;12.13;3.40;;;;;;;;;;4993455;28;20553;-76
2022/07/06 02:33:27;;;;;;;11.43;3.92;;;;;;;;;;4993725;28;20108;-76
2022/07/06 02:35:56;;;;;;;18.33;4.50;;;;;;;;;;4994007;28;20030;-76
2022/07/06 02:38:23;;;;;;;12.57;4.03;;;;;;;;;;4988210;28;20045;-76
2022/07/06 02:40:54;;;;;;;16.02;3.95;;;;;;;;;;4992519;28;20022;-76
2022/07/06 02:43:20;;;;;;;15.05;4.47;;;;;;;;;;4992825;28;20033;-77
2022/07/06 02:45:46;;;;;;;10.93;3.70;;;;;;;;;;4995158;28;20040;-76
2022/07/06 02:48:13;;;;;;;11.32;4.00;;;;;;;;;;4990283;28;20029;-76
2022/07/06 02:50:39;;;;;;;11.60;3.70;;;;;;;;;;4988459;28;20034;-76
2022/07/06 02:53:05;;;;;;;13.50;4.07;;;;;;;;;;4992900;28;20540;-77
2022/07/06 02:55:31;;;;;;;16.90;4.15;;;;;;;;;;4986744;28;20049;-76
2022/07/06 02:57:57;;;;;;;15.05;4.13;;;;;;;;;;4990723;28;20491;-76
2022/07/06 03:00:24;;;;;;;19.50;4.50;;;;;;;;;;4994658;28;20406;-77
2022/07/06 03:02:50;;;;;;;24.98;4.80;;;;;;;;;;4996023;28;20041;-76
2022/07/06 03:05:18;;;;;;;17.85;4.47;;;;;;;;;;4997992;28;20072;-77
2022/07/06 03:07:45;;;;;;;19.02;4.75;;;;;;;;;;4985854;28;20037;-77
2022/07/06 03:10:11;;;;;;;15.60;4.68;;;;;;;;;;4989279;28;20046;-76
2022/07/06 03:12:37;;;;;;;18.15;4.53;;;;;;;;;;4998832;28;20030;-77
2022/07/06 03:15:04;;;;;;;20.00;5.43;;;;;;;;;;4995149;28;20034;-76
2022/07/06 03:17:30;;;;;;;19.25;4.30;;;;;;;;;;4988819;28;20026;-77
2022/07/06 03:19:59;;;;;;;17.27;5.15;;;;;;;;;;4992574;28;20584;-76
2022/07/06 03:22:25;;;;;;;18.95;4.57;;;;;;;;;;5000462;28;20022;-76
2022/07/06 03:24:52;;;;;;;24.75;4.75;;;;;;;;;;4997885;28;20034;-76
2022/07/06 03:27:20;;;;;;;18.67;4.43;;;;;;;;;;4997542;28;20026;-76
2022/07/06 03:29:46;;;;;;;18.65;4.45;;;;;;;;;;4997352;28;20553;-76
2022/07/06 03:32:13;;;;;;;17.38;4.18;;;;;;;;;;4995933;28;20053;-76
2022/07/06 03:34:39;;;;;;;16.65;4.22;;;;;;;;;;5002670;28;20473;-77
2022/07/06 03:37:06;;;;;;;20.70;4.07;;;;;;;;;;5006417;28;20030;-76
2022/07/06 03:39:32;;;;;;;14.50;4.03;;;;;;;;;;5004395;28;20020;-76
2022/07/06 03:41:58;;;;;;;18.48;3.78;;;;;;;;;;5005698;28;20045;-77
2022/07/06 03:44:25;;;;;;;22.30;4.85;;;;;;;;;;5001063;28;20062;-77
2022/07/06 03:46:55;;;;;;;20.52;4.88;;;;;;;;;;5006236;28;20043;-76
2022/07/06 03:49:22;;;;;;;19.13;3.70;;;;;;;;;;5000712;28;20796;-76
2022/07/06 03:51:48;;;;;;;21.58;4.53;;;;;;;;;;5010296;28;20033;-77
2022/07/06 03:54:14;;;;;;;20.48;3.83;;;;;;;;;;5002089;28;20100;-76
2022/07/06 03:56:40;;;;;;;18.13;4.05;;;;;;;;;;5011656;28;20175;-76
2022/07/06 03:59:06;;;;;;;15.05;4.03;;;;;;;;;;5004296;28;20045;-76
2022/07/06 04:01:32;;;;;;;11.48;3.58;;;;;;;;;;5015091;28;20386;-76
2022/07/06 04:03:58;;;;;;;12.20;3.70;;;;;;;;;;5005102;28;20025;-76
2022/07/06 04:06:25;;;;;;;15.77;4.40;;;;;;;;;;5006655;28;20069;-76
2022/07/06 04:08:51;;;;;;;21.20;4.28;;;;;;;;;;5005515;28;20025;-76
2022/07/06 04:11:17;;;;;;;14.25;3.40;;;;;;;;;;5004800;28;20100;-76
2022/07/06 04:13:43;;;;;;;15.40;4.53;;;;;;;;;;5008990;28;20040;-76
2022/07/06 04:16:10;;;;;;;15.50;4.03;;;;;;;;;;5005718;28;20037;-76
2022/07/06 04:18:36;;;;;;;16.67;4.00;;;;;;;;;;5006434;28;20041;-76
2022/07/06 04:21:02;;;;;;;18.20;3.80;;;;;;;;;;5006182;28;20030;-75
2022/07/06 04:23:28;;;;;;;14.63;4.43;;;;;;;;;;5007989;28;20034;-76
2022/07/06 04:25:54;;;;;;;13.30;4.10;;;;;;;;;;5005072;28;20037;-76
2022/07/06 04:28:20;;;;;;;15.98;3.53;;;;;;;;;;5006501;28;20030;-76
2022/07/06 04:30:47;;;;;;;15.23;3.83;;;;;;;;;;5005644;28;20034;-75
2022/07/06 04:33:14;;;;;;;19.20;4.30;;;;;;;;;;5009825;28;20045;-76
2022/07/06 04:35:40;;;;;;;17.77;4.00;;;;;;;;;;5007975;28;20022;-76
2022/07/06 04:38:06;;;;;;;9.23;3.60;;;;;;;;;;4999366;28;20030;-76
2022/07/06 04:40:32;;;;;;;15.20;4.13;;;;;;;;;;5008693;28;20026;-76
2022/07/06 04:42:59;;;;;;;9.68;3.47;;;;;;;;;;5012075;28;20034;-76
2022/07/06 04:45:25;;;;;;;10.95;3.80;;;;;;;;;;5007325;28;20786;-76
2022/07/06 04:47:51;;;;;;;12.93;4.40;;;;;;;;;;5011241;28;20516;-76
2022/07/06 04:50:17;;;;;;;15.13;4.32;;;;;;;;;;5007852;28;20037;-76
2022/07/06 04:52:44;;;;;;;11.60;3.70;;;;;;;;;;5011083;28;20190;-76
2022/07/06 04:55:10;;;;;;;14.45;4.05;;;;;;;;;;5006827;28;20045;-76
2022/07/06 04:57:36;;;;;;;16.67;4.18;;;;;;;;;;5009798;28;20026;-76
2022/07/06 05:00:03;;;;;;;19.45;4.32;;;;;;;;;;5007296;28;20273;-76
2022/07/06 05:02:29;;;;;;;16.58;3.67;;;;;;;;;;5015693;28;20029;-76
2022/07/06 05:04:55;;;;;;;16.77;4.53;;;;;;;;;;5007110;28;20032;-76
2022/07/06 05:07:21;;;;;;;16.30;4.72;;;;;;;;;;5008181;28;20037;-76
2022/07/06 05:09:47;;;;;;;16.45;4.85;;;;;;;;;;5005104;28;20045;-76
2022/07/06 05:12:13;;;;;;;17.52;4.90;;;;;;;;;;5011310;28;20029;-76
2022/07/06 05:14:39;;;;;;;17.60;4.85;;;;;;;;;;5004084;28;20034;-75
2022/07/06 05:17:06;;;;;;;18.52;4.70;;;;;;;;;;5010139;28;20023;-76
2022/07/06 05:19:32;;;;;;;14.45;5.10;;;;;;;;;;5004178;28;20928;-76
2022/07/06 05:21:58;;;;;;;11.05;4.75;;;;;;;;;;5009601;28;20049;-76
2022/07/06 05:24:24;;;;;;;13.02;4.90;;;;;;;;;;5005718;28;20464;-76
2022/07/06 05:26:50;;;;;;;10.18;4.85;;;;;;;;;;5004593;28;20592;-77
2022/07/06 05:29:16;;;;;;;14.45;5.10;;;;;;;;;;4995852;28;20096;-83
2022/07/06 05:31:42;;;;;;;9.43;5.00;;;;;;;;;;5005715;28;20034;-77
2022/07/06 05:34:09;;;;;;;11.57;4.88;;;;;;;;;;5013798;28;20025;-77
2022/07/06 05:36:35;;;;;;;20.67;6.20;;;;;;;;;;5003074;28;20038;-77
2022/07/06 05:39:01;;;;;;;8.20;4.20;;;;;;;;;;5001929;28;20394;-77
2022/07/06 05:41:27;;;;;;;10.32;4.05;;;;;;;;;;5004810;28;20091;-76
2022/07/06 05:43:53;;;;;;;9.05;3.22;;;;;;;;;;4997938;28;20037;-76
2022/07/06 05:46:20;;;;;;;9.70;3.42;;;;;;;;;;5003754;28;20098;-76
2022/07/06 05:51:31;;;;;;;14.15;4.82;;;;;;;;;;5008568;28;20044;-75
2022/07/06 05:53:57;;;;;;;9.70;4.65;;;;;;;;;;5010024;28;20026;-75
2022/07/06 05:56:23;;;;;;;18.90;5.35;;;;;;;;;;5007072;28;20030;-76
2022/07/06 05:58:49;;;;;;;14.05;5.13;;;;;;;;;;4998187;28;20053;-74
2022/07/06 06:01:15;;;;;;;9.52;4.57;;;;;;;;;;5000664;28;20036;-75
2022/07/06 06:03:41;;;;;;;10.30;4.50;;;;;;;;;;5009313;28;20105;-75
2022/07/06 06:06:07;;;;;;;16.45;4.38;;;;;;;;;;4999910;28;20068;-75
2022/07/06 06:08:33;;;;;;;11.23;4.05;;;;;;;;;;5007160;28;20638;-75
2022/07/06 06:11:00;;;;;;;13.27;4.70;;;;;;;;;;5000066;28;20498;-75
2022/07/06 06:13:26;;;;;;;14.85;4.60;;;;;;;;;;5004787;28;20030;-76
2022/07/06 06:15:52;;;;;;;7.93;3.85;;;;;;;;;;4998893;28;20033;-76
2022/07/06 06:18:19;;;;;;;12.18;4.07;;;;;;;;;;5003107;28;20028;-76
2022/07/06 06:20:45;;;;;;;13.38;3.92;;;;;;;;;;5000963;28;20091;-75
2022/07/06 06:23:11;;;;;;;19.05;4.43;;;;;;;;;;5002670;28;20571;-75
2022/07/06 06:25:38;;;;;;;13.18;4.25;;;;;;;;;;5009915;28;20087;-74
2022/07/06 06:28:05;;;;;;;11.68;4.20;;;;;;;;;;5002547;28;20014;-75
2022/07/06 06:30:32;;;;;;;16.08;4.10;;;;;;;;;;5006865;28;20707;-75
2022/07/06 06:33:10;;;;;;;17.33;4.03;;;;;;;;;;5004552;28;20026;-75
2022/07/06 06:35:36;;;;;;;14.00;3.75;;;;;;;;;;5001889;28;20482;-74
2022/07/06 06:38:02;;;;;;;10.65;3.92;;;;;;;;;;5006724;28;20075;-76
2022/07/06 06:40:28;;;;;;;15.75;4.28;;;;;;;;;;5005878;28;20893;-76
2022/07/06 06:42:54;;;;;;;11.95;4.22;;;;;;;;;;5005335;28;20022;-76
2022/07/06 06:45:20;;;;;;;12.80;3.97;;;;;;;;;;5007578;28;20086;-76
2022/07/06 06:47:47;;;;;;;18.42;4.53;;;;;;;;;;5002159;28;20029;-77
2022/07/06 06:50:13;;;;;;;13.30;4.05;;;;;;;;;;5001781;28;20041;-76
2022/07/06 06:52:39;;;;;;;12.52;4.63;;;;;;;;;;4999299;28;20026;-77
2022/07/06 06:55:05;;;;;;;12.60;4.22;;;;;;;;;;5008857;28;20478;-76
2022/07/06 06:57:32;;;;;;;19.42;5.30;;;;;;;;;;5000090;28;20025;-76
2022/07/06 06:59:58;;;;;;;18.10;4.72;;;;;;;;;;5000869;28;20054;-76
2022/07/06 07:02:24;;;;;;;14.43;4.88;;;;;;;;;;4989873;28;20080;-77
2022/07/06 07:04:50;;;;;;;9.88;3.83;;;;;;;;;;4996296;28;20062;-76
2022/07/06 07:07:17;;;;;;;21.17;5.35;;;;;;;;;;4999639;28;20109;-77
2022/07/06 07:09:43;;;;;;;15.60;5.07;;;;;;;;;;5000393;28;20050;-76
2022/07/06 07:12:10;;;;;;;12.82;4.15;;;;;;;;;;5000597;28;20033;-76
2022/07/06 07:14:36;;;;;;;18.13;5.15;;;;;;;;;;4996912;28;20084;-76
2022/07/06 07:17:02;;;;;;;13.23;4.95;;;;;;;;;;4998926;28;20033;-76
2022/07/06 07:19:29;;;;;;;11.88;5.00;;;;;;;;;;4997240;28;20034;-76
2022/07/06 07:21:55;;;;;;;12.48;5.43;;;;;;;;;;5002223;28;20053;-75
2022/07/06 07:24:21;;;;;;;14.02;5.10;;;;;;;;;;4997418;28;20084;-75
2022/07/06 07:26:47;;;;;;;21.42;7.50;;;;;;;;;;5000067;28;20026;-75
2022/07/06 07:29:13;;;;;;;22.17;7.05;;;;;;;;;;4999191;28;20034;-76
2022/07/06 07:31:39;;;;;;;18.17;5.25;;;;;;;;;;4995568;28;20100;-77
2022/07/06 07:34:05;;;;;;;20.02;5.00;;;;;;;;;;5002090;28;20371;-76
2022/07/06 07:36:32;;;;;;;13.60;4.97;;;;;;;;;;4994056;28;20496;-76
2022/07/06 07:38:58;;;;;;;21.55;5.82;;;;;;;;;;4993900;28;20030;-74
2022/07/06 07:41:24;;;;;;;16.10;5.35;;;;;;;;;;4995845;28;20034;-75
2022/07/06 07:43:50;;;;;;;14.25;4.78;;;;;;;;;;5000297;28;20037;-73
2022/07/06 07:46:17;;;;;;;23.25;5.57;;;;;;;;;;5001891;28;20030;-73
2022/07/06 07:48:43;;;;;;;16.33;5.25;;;;;;;;;;4996741;28;20026;-72
2022/07/06 07:51:09;;;;;;;17.52;6.22;;;;;;;;;;4998678;28;20030;-72
2022/07/06 07:53:35;;;;;;;17.35;4.90;;;;;;;;;;4996565;28;20564;-73
2022/07/06 07:56:02;;;;;;;16.35;4.95;;;;;;;;;;4994102;28;20033;-73
2022/07/06 07:58:28;;;;;;;20.05;5.00;;;;;;;;;;4997024;28;20029;-72
2022/07/06 08:00:54;;;;;;;16.17;5.10;;;;;;;;;;4997935;28;20022;-72
2022/07/06 08:03:20;;;;;;;16.13;5.55;;;;;;;;;;4999444;28;20053;-73
2022/07/06 08:05:48;;;;;;;12.73;4.70;;;;;;;;;;4994504;28;20789;-73
2022/07/06 08:08:14;;;;;;;17.60;5.13;;;;;;;;;;5001831;28;20493;-72
2022/07/06 08:10:40;;;;;;;16.08;4.93;;;;;;;;;;4997662;28;20120;-72
2022/07/06 08:13:07;;;;;;;9.98;4.70;;;;;;;;;;4995117;28;20084;-72
2022/07/06 08:15:33;;;;;;;16.70;5.03;;;;;;;;;;4999195;28;20038;-72
2022/07/06 08:18:00;;;;;;;13.88;4.82;;;;;;;;;;4997958;28;20034;-73
2022/07/06 08:20:26;;;;;;;12.80;4.57;;;;;;;;;;4996083;28;20742;-72
2022/07/06 08:22:53;;;;;;;11.23;5.00;;;;;;;;;;4996896;28;20026;-73
2022/07/06 08:25:19;;;;;;;15.98;5.15;;;;;;;;;;5001630;28;20026;-73
2022/07/06 08:27:45;;;;;;;16.30;5.05;;;;;;;;;;4994869;28;20414;-73
2022/07/06 08:30:11;;;;;;;11.15;4.75;;;;;;;;;;4998894;28;20121;-73
2022/07/06 08:32:39;;;;;;;13.48;4.63;;;;;;;;;;4992118;28;20026;-73
2022/07/06 08:35:05;;;;;;;12.77;4.80;;;;;;;;;;4990050;28;20025;-73
2022/07/06 08:37:32;;;;;;;17.73;5.25;;;;;;;;;;4992540;28;20061;-73
2022/07/06 08:39:58;;;;;;;9.27;4.40;;;;;;;;;;5007502;28;20421;-72
2022/07/06 08:42:29;;;;;;;9.60;4.38;;;;;;;;;;5001972;28;20155;-73
2022/07/06 08:44:58;;;;;;;11.48;4.03;;;;;;;;;;5000616;28;20036;-74
2022/07/06 08:47:26;;;;;;;13.23;4.50;;;;;;;;;;5006815;28;20276;-72
2022/07/06 08:49:53;;;;;;;13.20;5.10;;;;;;;;;;5005094;28;20059;-73
2022/07/06 08:52:19;;;;;;;18.15;5.40;;;;;;;;;;5007220;28;20112;-73
2022/07/06 08:54:46;;;;;;;12.00;4.75;;;;;;;;;;5004104;28;20033;-73
2022/07/06 08:57:12;;;;;;;15.82;4.82;;;;;;;;;;5009869;28;20544;-74
2022/07/06 08:59:39;;;;;;;13.60;5.28;;;;;;;;;;5000635;28;20494;-73
2022/07/06 09:02:06;;;;;;;13.32;4.88;;;;;;;;;;5000895;28;20029;-73
2022/07/06 09:04:33;;;;;;;20.30;5.47;;;;;;;;;;5008444;28;20040;-72
2022/07/06 09:07:00;;;;;;;15.07;5.40;;;;;;;;;;5001544;28;20042;-75
2022/07/06 09:09:26;;;;;;;15.88;5.30;;;;;;;;;;5000633;28;20452;-73
2022/07/06 09:11:52;;;;;;;15.23;5.15;;;;;;;;;;5004404;28;20030;-74
2022/07/06 09:14:19;;;;;;;11.02;4.93;;;;;;;;;;5001696;28;20497;-74
2022/07/06 09:16:45;;;;;;;16.40;4.90;;;;;;;;;;5001519;28;20064;-73
2022/07/06 09:19:13;;;;;;;13.57;4.88;;;;;;;;;;5001513;28;20057;-73
2022/07/06 09:21:41;;;;;;;12.70;4.85;;;;;;;;;;4991996;28;20135;-72
2022/07/06 09:24:11;;;;;;;15.05;4.90;;;;;;;;;;4997332;28;20174;-73
2022/07/06 09:26:38;;;;;;;14.57;4.97;;;;;;;;;;5002558;28;20032;-72
2022/07/06 09:29:05;;;;;;;15.00;5.35;;;;;;;;;;5002958;28;20449;-73
2022/07/06 09:31:31;;;;;;;13.93;4.57;;;;;;;;;;5003980;28;20041;-73
2022/07/06 09:34:03;;;;;;;12.90;4.80;;;;;;;;;;4999405;28;20056;-73
2022/07/06 09:36:38;;;;;;;12.55;5.15;;;;;;;;;;4996035;28;20060;-74
2022/07/06 09:39:21;;;;;;;14.70;5.35;;;;;;;;;;5004896;28;20390;-73
2022/07/06 09:41:48;;;;;;;19.83;5.07;;;;;;;;;;4996220;28;20026;-74
2022/07/06 09:44:19;;;;;;;11.82;5.30;;;;;;;;;;5004615;28;20021;-75
2022/07/06 09:46:46;;;;;;;13.23;4.90;;;;;;;;;;5006498;28;20032;-73
2022/07/06 09:49:13;;;;;;;12.80;4.22;;;;;;;;;;5003427;28;20026;-73
2022/07/06 09:51:39;;;;;;;12.80;4.55;;;;;;;;;;5005019;28;20030;-73
2022/07/06 09:54:09;;;;;;;16.17;5.30;;;;;;;;;;5000042;28;20036;-73
2022/07/06 09:56:39;;;;;;;12.32;5.03;;;;;;;;;;5005569;28;20107;-73
2022/07/06 09:59:12;;;;;;;10.00;4.93;;;;;;;;;;5002006;28;20037;-74
2022/07/06 10:01:39;;;;;;;10.60;4.20;;;;;;;;;;5002949;28;20029;-74
2022/07/06 10:04:12;;;;;;;17.75;5.05;;;;;;;;;;4998515;28;20552;-74
2022/07/06 10:06:39;;;;;;;10.40;4.75;;;;;;;;;;5000665;28;20029;-74
2022/07/06 10:09:10;;;;;;;13.50;4.82;;;;;;;;;;5000332;28;20486;-73
2022/07/06 10:11:48;;;;;;;15.82;4.53;;;;;;;;;;5000473;28;20319;-73
2022/07/06 10:14:17;;;;;;;10.18;4.68;;;;;;;;;;4994680;28;20017;-74
2022/07/06 10:16:43;;;;;;;10.70;4.65;;;;;;;;;;5002913;28;20584;-74
2022/07/06 10:19:10;;;;;;;15.32;4.95;;;;;;;;;;4999704;28;20029;-73
2022/07/06 10:21:37;;;;;;;17.15;4.55;;;;;;;;;;4999376;28;20121;-73
2022/07/06 10:24:04;;;;;;;18.40;4.85;;;;;;;;;;5000086;28;20494;-73
2022/07/06 10:26:30;;;;;;;11.73;4.68;;;;;;;;;;4998372;28;20122;-74
2022/07/06 10:28:59;;;;;;;12.20;4.40;;;;;;;;;;5001584;28;20026;-74
2022/07/06 10:31:25;;;;;;;16.38;5.25;;;;;;;;;;4999200;28;20137;-73
2022/07/06 10:33:52;;;;;;;11.85;3.65;;;;;;;;;;5002236;28;20686;-76
2022/07/06 10:36:19;;;;;;;14.45;4.50;;;;;;;;;;4996620;28;20033;-74
2022/07/06 10:38:49;;;;;;;10.95;4.43;;;;;;;;;;4996410;28;20239;-73
2022/07/06 10:41:15;;;;;;;10.75;4.20;;;;;;;;;;5005434;28;20021;-74
2022/07/06 10:43:45;;;;;;;8.18;3.83;;;;;;;;;;4998126;28;20036;-74
2022/07/06 10:46:11;;;;;;;9.00;4.17;;;;;;;;;;5002902;28;20112;-74
2022/07/06 10:48:42;;;;;;;11.35;4.53;;;;;;;;;;5006269;28;20591;-73
2022/07/06 10:51:08;;;;;;;12.60;4.53;;;;;;;;;;4999565;28;20042;-73
2022/07/06 10:53:36;;;;;;;7.40;4.07;;;;;;;;;;4994497;28;20055;-74
2022/07/06 10:56:09;;;;;;;11.15;4.47;;;;;;;;;;4998618;28;20033;-73
2022/07/06 10:58:36;;;;;;;9.30;4.63;;;;;;;;;;4998059;28;20037;-73
2022/07/06 11:01:03;;;;;;;14.30;4.45;;;;;;;;;;4998344;28;20037;-73
2022/07/06 11:03:35;;;;;;;15.30;4.95;;;;;;;;;;5001208;28;20077;-74
2022/07/06 11:06:02;;;;;;;9.13;4.22;;;;;;;;;;5005789;28;20018;-72
2022/07/06 11:08:47;;;;;;;15.90;4.63;;;;;;;;;;5001753;28;20029;-74
2022/07/06 11:11:16;;;;;;;12.60;4.05;;;;;;;;;;5000307;28;20647;-74
2022/07/06 11:14:03;;;;;;;15.90;4.45;;;;;;;;;;5002206;28;20017;-73
2022/07/06 11:16:33;;;;;;;18.27;5.28;;;;;;;;;;4991284;28;20037;-73
2022/07/06 11:19:04;;;;;;;11.75;4.65;;;;;;;;;;4991988;28;20066;-73
2022/07/06 11:21:35;;;;;;;13.98;4.82;;;;;;;;;;5003830;28;20014;-73
2022/07/06 11:24:02;;;;;;;10.02;4.78;;;;;;;;;;4993301;28;20604;-73
2022/07/06 11:26:28;;;;;;;13.75;4.82;;;;;;;;;;4996286;28;20010;-72
2022/07/06 11:28:54;;;;;;;13.95;3.97;;;;;;;;;;5000029;28;20034;-73
2022/07/06 11:31:20;;;;;;;13.95;4.97;;;;;;;;;;4999244;28;20034;-73
2022/07/06 11:33:47;;;;;;;9.57;3.85;;;;;;;;;;4990941;28;20029;-73
2022/07/06 11:36:13;;;;;;;15.30;4.60;;;;;;;;;;4999262;28;20026;-73
2022/07/06 11:38:40;;;;;;;10.75;4.10;;;;;;;;;;4999488;28;20029;-73
2022/07/06 11:41:06;;;;;;;9.80;4.40;;;;;;;;;;5005459;28;20096;-73
2022/07/06 11:43:32;;;;;;;11.13;4.80;;;;;;;;;;5003957;28;20022;-72
2022/07/06 11:45:58;;;;;;;7.47;3.83;;;;;;;;;;4997030;28;20033;-73
2022/07/06 11:48:24;;;;;;;10.20;4.30;;;;;;;;;;4998789;28;20022;-73
2022/07/06 11:51:01;;;;;;;7.07;3.65;;;;;;;;;;5004155;28;20040;-73
2022/07/06 11:53:27;;;;;;;9.10;4.00;;;;;;;;;;4993152;28;20025;-73
2022/07/06 11:55:53;;;;;;;9.77;4.18;;;;;;;;;;4999236;28;20037;-73
2022/07/06 11:58:22;;;;;;;14.27;4.68;;;;;;;;;;5001177;28;20022;-73
2022/07/06 12:01:04;;;;;;;9.13;4.43;;;;;;;;;;4998434;28;20176;-75
2022/07/06 12:03:32;;;;;;;10.63;4.80;;;;;;;;;;5005385;28;20049;-74
2022/07/06 12:05:58;;;;;;;10.15;4.50;;;;;;;;;;4999261;28;20025;-73
2022/07/06 12:08:25;;;;;;;8.10;4.30;;;;;;;;;;5004939;28;20048;-73
2022/07/06 12:10:52;;;;;;;13.73;4.32;;;;;;;;;;5000363;28;20104;-74
2022/07/06 12:13:18;;;;;;;10.57;4.72;;;;;;;;;;5003219;28;20032;-75
2022/07/06 12:15:44;;;;;;;11.88;4.68;;;;;;;;;;5003069;28;20042;-73
2022/07/06 12:18:11;;;;;;;11.20;4.28;;;;;;;;;;5003262;28;20091;-74
2022/07/06 12:20:37;;;;;;;12.43;4.10;;;;;;;;;;5000218;28;20092;-75
2022/07/06 12:23:07;;;;;;;9.38;4.32;;;;;;;;;;5002020;28;20044;-75
2022/07/06 12:25:37;;;;;;;11.30;4.28;;;;;;;;;;5004069;28;20042;-75
2022/07/06 12:28:04;;;;;;;14.48;4.75;;;;;;;;;;5004044;28;20026;-73
2022/07/06 12:30:30;;;;;;;15.82;4.32;;;;;;;;;;5010221;28;20517;-73
2022/07/06 12:33:15;;;;;;;10.77;4.00;;;;;;;;;;5008386;28;20034;-74
2022/07/06 12:35:42;;;;;;;14.57;4.32;;;;;;;;;;5001118;28;20522;-73
2022/07/06 12:38:08;;;;;;;14.38;4.07;;;;;;;;;;5009399;28;20031;-74
2022/07/06 12:40:36;;;;;;;11.68;4.07;;;;;;;;;;4993202;28;20041;-73
2022/07/06 12:43:03;;;;;;;11.88;4.00;;;;;;;;;;5003577;28;20049;-73
2022/07/06 12:45:30;;;;;;;9.85;4.18;;;;;;;;;;4999601;28;20022;-73
2022/07/06 12:47:59;;;;;;;11.98;4.05;;;;;;;;;;5006591;28;20057;-73
2022/07/06 12:50:38;;;;;;;14.40;4.75;;;;;;;;;;5003505;28;20069;-73
2022/07/06 12:53:06;;;;;;;13.10;4.75;;;;;;;;;;5004597;28;20029;-73
2022/07/06 12:55:32;;;;;;;15.60;4.47;;;;;;;;;;4999634;28;20113;-73
2022/07/06 12:57:59;;;;;;;10.77;4.13;;;;;;;;;;5002967;28;20036;-73
2022/07/06 13:00:25;;;;;;;15.15;4.50;;;;;;;;;;5001244;28;20079;-74
2022/07/06 13:02:56;;;;;;;12.55;4.32;;;;;;;;;;5000105;28;20037;-74
2022/07/06 13:05:30;;;;;;;13.77;3.90;;;;;;;;;;5000073;28;20100;-74
2022/07/06 13:07:57;;;;;;;13.38;4.05;;;;;;;;;;4998327;28;20030;-74
2022/07/06 13:10:23;;;;;;;10.60;4.13;;;;;;;;;;4998487;28;20312;-74
2022/07/06 13:12:50;;;;;;;12.25;3.80;;;;;;;;;;5001366;28;20018;-74
2022/07/06 13:15:17;;;;;;;6.57;3.58;;;;;;;;;;4999998;28;20245;-75
2022/07/06 13:17:44;;;;;;;12.60;4.03;;;;;;;;;;4999021;28;20021;-74
2022/07/06 13:20:11;;;;;;;8.55;3.58;;;;;;;;;;5000098;28;20026;-75
2022/07/06 13:22:37;;;;;;;13.10;3.90;;;;;;;;;;5000265;28;20022;-74
2022/07/06 13:25:04;;;;;;;9.80;3.95;;;;;;;;;;4997165;28;20512;-74
2022/07/06 13:27:30;;;;;;;11.50;4.20;;;;;;;;;;4999636;28;20033;-74
2022/07/06 13:29:56;;;;;;;9.25;3.50;;;;;;;;;;5002696;28;20081;-74
2022/07/06 13:32:22;;;;;;;16.75;3.70;;;;;;;;;;5009696;28;20033;-74
2022/07/06 13:34:49;;;;;;;11.20;3.28;;;;;;;;;;5004020;28;20061;-73
2022/07/06 13:37:15;;;;;;;8.68;3.78;;;;;;;;;;5000690;28;20030;-74
2022/07/06 13:39:41;;;;;;;10.77;3.38;;;;;;;;;;5001480;28;20029;-73
2022/07/06 13:42:08;;;;;;;8.60;2.72;;;;;;;;;;5003435;28;20029;-74
2022/07/06 13:44:35;;;;;;;11.32;3.42;;;;;;;;;;5006785;28;20022;-74
2022/07/06 13:47:01;;;;;;;10.65;3.53;;;;;;;;;;5001770;28;20041;-74
2022/07/06 13:49:27;;;;;;;9.10;3.42;;;;;;;;;;5002410;28;20037;-74
2022/07/06 13:51:54;;;;;;;11.57;3.28;;;;;;;;;;4998304;28;20628;-74
2022/07/06 13:54:21;;;;;;;11.68;3.75;;;;;;;;;;5001448;28;20129;-74
2022/07/06 13:56:47;;;;;;;9.70;3.65;;;;;;;;;;5001160;28;20059;-73
2022/07/06 13:59:13;;;;;;;12.80;3.50;;;;;;;;;;4999265;28;20533;-74
2022/07/06 14:01:39;;;;;;;8.23;3.13;;;;;;;;;;4990714;28;20026;-73
2022/07/06 14:04:06;;;;;;;12.07;3.90;;;;;;;;;;4998298;28;20024;-74
2022/07/06 14:06:32;;;;;;;10.35;3.28;;;;;;;;;;4999955;28;20056;-74
2022/07/06 14:08:58;;;;;;;14.93;3.88;;;;;;;;;;4991250;28;20134;-74
2022/07/06 14:11:24;;;;;;;12.73;3.50;;;;;;;;;;4999732;28;20778;-74
2022/07/06 14:13:50;;;;;;;13.05;3.63;;;;;;;;;;4998073;28;20026;-72
2022/07/06 14:16:17;;;;;;;9.88;3.55;;;;;;;;;;4994472;28;20769;-73
2022/07/06 14:18:43;;;;;;;12.23;3.75;;;;;;;;;;4995041;28;20036;-73
2022/07/06 14:21:09;;;;;;;11.27;3.55;;;;;;;;;;4996711;28;20029;-74
2022/07/06 14:23:35;;;;;;;6.97;2.90;;;;;;;;;;4997616;28;20036;-73
2022/07/06 14:26:01;;;;;;;12.55;4.30;;;;;;;;;;4998088;28;20069;-73
2022/07/06 14:28:28;;;;;;;11.68;3.53;;;;;;;;;;4999052;28;20022;-73
2022/07/06 14:30:54;;;;;;;12.75;3.88;;;;;;;;;;4999090;28;20060;-74
2022/07/06 14:33:20;;;;;;;16.63;3.65;;;;;;;;;;4997046;28;20037;-73
2022/07/06 14:35:47;;;;;;;7.85;3.17;;;;;;;;;;4996440;28;20033;-75